Time;durP1;ratioP1;P1;durP2;ratioP2;P2;SDS_P1;SDS_P2;PMS_P1;PMS_P2;Temp;Humidity;BMP_temperature;BMP_pressure;BME280_temperature;BME280_humidity;BME280_pressure;Samples;Min_cycle;Max_cycle;Signal;HPM_P1;HPM_P2
2021/05/29 00:02:05;;;;;;;5.10;1.48;;;9.80;99.90;;;;;;5055077;28;20100;-75
2021/05/29 00:04:31;;;;;;;2.60;1.08;;;9.80;99.90;;;;;;5068608;22;20080;-74
2021/05/29 00:06:56;;;;;;;3.42;0.88;;;9.90;99.90;;;;;;5037053;28;20482;-74
2021/05/29 00:09:22;;;;;;;4.38;1.05;;;9.90;99.90;;;;;;5036823;28;20059;-74
2021/05/29 00:11:48;;;;;;;1.95;0.80;;;9.90;99.90;;;;;;5054697;28;20013;-74
2021/05/29 00:14:14;;;;;;;3.30;1.48;;;9.90;99.90;;;;;;5054403;28;20032;-73
2021/05/29 00:16:40;;;;;;;2.88;1.25;;;9.90;99.90;;;;;;5054505;28;20044;-73
2021/05/29 00:19:05;;;;;;;3.90;1.05;;;10.00;99.90;;;;;;5036094;28;20017;-74
2021/05/29 00:21:31;;;;;;;3.30;0.93;;;10.00;99.90;;;;;;5036329;28;20554;-74
2021/05/29 00:23:56;;;;;;;3.38;1.55;;;10.00;99.90;;;;;;5054643;28;20020;-75
2021/05/29 00:26:22;;;;;;;2.88;0.90;;;10.00;99.90;;;;;;5054227;28;20033;-74
2021/05/29 00:28:48;;;;;;;2.53;1.40;;;10.00;99.90;;;;;;5090194;22;20064;-74
2021/05/29 00:31:15;;;;;;;3.83;1.30;;;9.90;99.90;;;;;;5053738;28;20374;-73
2021/05/29 00:33:40;;;;;;;3.10;1.10;;;9.90;99.90;;;;;;5036179;28;20359;-75
2021/05/29 00:36:06;;;;;;;6.95;1.30;;;9.90;99.90;;;;;;5053872;28;20032;-75
2021/05/29 00:38:31;;;;;;;2.15;0.95;;;9.90;99.90;;;;;;5054221;28;20021;-74
2021/05/29 00:40:57;;;;;;;3.00;1.52;;;9.90;99.90;;;;;;5046495;28;20074;-75
2021/05/29 00:43:26;;;;;;;4.47;1.83;;;9.80;99.90;;;;;;5034945;28;20026;-74
2021/05/29 00:45:51;;;;;;;5.97;1.80;;;9.80;99.90;;;;;;5042507;28;20025;-74
2021/05/29 00:48:17;;;;;;;4.75;1.45;;;9.70;99.90;;;;;;5036106;28;20028;-74
2021/05/29 00:50:49;;;;;;;4.65;1.30;;;9.70;99.90;;;;;;5053520;28;20470;-74
2021/05/29 00:53:18;;;;;;;2.63;1.38;;;9.60;99.90;;;;;;5053802;28;20029;-73
2021/05/29 00:55:44;;;;;;;3.80;1.35;;;9.60;99.90;;;;;;5033381;28;20028;-74
2021/05/29 00:58:10;;;;;;;3.72;1.20;;;9.60;99.90;;;;;;5057545;23;20052;-73
2021/05/29 01:00:35;;;;;;;3.90;2.03;;;9.50;99.90;;;;;;5054079;28;20017;-74
2021/05/29 01:03:01;;;;;;;4.68;1.30;;;9.50;99.90;;;;;;5036452;28;20019;-74
2021/05/29 01:05:27;;;;;;;5.75;1.75;;;9.40;99.90;;;;;;5025127;28;20072;-74
2021/05/29 01:07:54;;;;;;;5.43;0.88;;;9.40;99.90;;;;;;5016057;28;20032;-75
2021/05/29 01:10:23;;;;;;;1.25;0.93;;;9.40;99.90;;;;;;5016225;28;20034;-74
2021/05/29 01:12:50;;;;;;;2.83;0.95;;;9.30;99.90;;;;;;5034113;28;20029;-74
2021/05/29 01:15:20;;;;;;;4.03;1.17;;;9.30;99.90;;;;;;5015858;28;20124;-75
2021/05/29 01:17:46;;;;;;;2.60;1.42;;;11.60;99.90;;;;;;5070641;22;20075;-74
2021/05/29 01:20:13;;;;;;;2.65;0.85;;;9.20;99.90;;;;;;5034168;28;20053;-74
2021/05/29 01:22:51;;;;;;;3.97;1.00;;;9.20;99.90;;;;;;5032724;28;20124;-74
2021/05/29 01:25:32;;;;;;;4.17;1.03;;;9.10;99.90;;;;;;5025385;22;20042;-74
2021/05/29 01:28:06;;;;;;;3.08;1.38;;;9.10;99.90;;;;;;5013957;28;20030;-74
2021/05/29 01:30:50;;;;;;;1.92;1.25;;;9.10;99.90;;;;;;5060773;22;20544;-74
2021/05/29 01:33:17;;;;;;;1.73;0.82;;;9.00;99.90;;;;;;5036165;28;20017;-75
2021/05/29 01:35:43;;;;;;;3.03;1.08;;;9.00;99.90;;;;;;5040347;28;20034;-73
2021/05/29 01:38:12;;;;;;;3.00;1.10;;;8.90;99.90;;;;;;5015259;28;20029;-73
2021/05/29 01:40:39;;;;;;;3.63;1.15;;;8.90;99.90;;;;;;5015419;28;20026;-73
2021/05/29 01:43:08;;;;;;;6.78;1.10;;;8.80;99.90;;;;;;5035329;28;20493;-75
2021/05/29 01:45:36;;;;;;;4.47;0.77;;;8.80;99.90;;;;;;5036912;28;20474;-74
2021/05/29 01:48:03;;;;;;;1.60;0.88;;;8.70;99.90;;;;;;5037582;28;20025;-75
2021/05/29 01:50:29;;;;;;;1.73;0.90;;;8.60;99.90;;;;;;5018984;28;20037;-75
2021/05/29 01:53:02;;;;;;;2.40;0.95;;;8.60;99.90;;;;;;5036505;28;20026;-76
2021/05/29 01:55:29;;;;;;;3.90;1.20;;;8.50;99.90;;;;;;5036328;28;20021;-74
2021/05/29 01:57:56;;;;;;;2.65;1.13;;;8.40;99.90;;;;;;5036321;28;20021;-75
2021/05/29 02:00:25;;;;;;;3.08;1.20;;;8.30;99.90;;;;;;5036591;28;20017;-75
2021/05/29 02:02:51;;;;;;;5.70;1.75;;;8.20;99.90;;;;;;5008028;28;20014;-74
2021/05/29 02:05:26;;;;;;;2.10;1.02;;;8.20;99.90;;;;;;5044156;28;20025;-74
2021/05/29 02:07:53;;;;;;;2.17;0.85;;;8.10;99.90;;;;;;5019493;28;20030;-76
2021/05/29 02:10:21;;;;;;;2.15;1.13;;;8.00;99.90;;;;;;5037140;28;20028;-74
2021/05/29 02:12:50;;;;;;;1.75;0.70;;;8.00;99.90;;;;;;5019659;28;20116;-74
2021/05/29 02:15:19;;;;;;;1.88;0.82;;;8.00;99.90;;;;;;5018957;28;20057;-74
2021/05/29 02:17:49;;;;;;;3.47;1.33;;;7.90;99.90;;;;;;5037928;28;20025;-74
2021/05/29 02:20:15;;;;;;;4.70;1.80;;;7.80;99.90;;;;;;5066680;22;20564;-73
2021/05/29 02:22:41;;;;;;;8.20;1.67;;;7.90;99.90;;;;;;5057548;28;20060;-75
2021/05/29 02:25:07;;;;;;;1.27;0.68;;;7.80;99.90;;;;;;5042301;28;20025;-74
2021/05/29 02:27:33;;;;;;;4.45;0.90;;;7.80;99.90;;;;;;5076247;28;20037;-73
2021/05/29 02:29:58;;;;;;;2.30;1.48;;;7.70;99.90;;;;;;5041125;28;20029;-74
2021/05/29 02:32:24;;;;;;;1.65;0.73;;;7.70;99.90;;;;;;5036267;28;20034;-75
2021/05/29 02:34:50;;;;;;;5.22;1.05;;;7.60;99.90;;;;;;5050685;28;20029;-75
2021/05/29 02:37:15;;;;;;;2.60;0.80;;;7.60;99.90;;;;;;5055855;28;20100;-75
2021/05/29 02:39:41;;;;;;;1.75;0.88;;;7.50;99.90;;;;;;5059598;28;20470;-74
2021/05/29 02:42:06;;;;;;;4.57;1.63;;;7.50;99.90;;;;;;5037651;28;20048;-74
2021/05/29 02:44:32;;;;;;;4.03;1.65;;;7.50;99.90;;;;;;5058070;28;20029;-74
2021/05/29 02:46:58;;;;;;;3.28;1.58;;;8.10;99.90;;;;;;5039532;28;20042;-75
2021/05/29 02:49:24;;;;;;;3.95;0.98;;;7.50;99.90;;;;;;5043123;28;20117;-75
2021/05/29 02:51:50;;;;;;;3.97;1.10;;;7.50;99.90;;;;;;5037539;28;20040;-75
2021/05/29 02:54:15;;;;;;;5.90;1.92;;;7.50;99.90;;;;;;5044054;28;20043;-74
2021/05/29 02:56:41;;;;;;;5.68;1.13;;;7.50;99.90;;;;;;5027721;28;20449;-76
2021/05/29 02:59:07;;;;;;;3.35;1.40;;;7.50;99.90;;;;;;5037709;28;20442;-74
2021/05/29 03:01:33;;;;;;;5.32;1.08;;;7.40;99.90;;;;;;5051591;22;20021;-74
2021/05/29 03:03:58;;;;;;;3.40;1.60;;;7.40;99.90;;;;;;5064048;28;20032;-75
2021/05/29 03:06:24;;;;;;;4.47;2.15;;;7.40;99.90;;;;;;5039802;28;20482;-75
2021/05/29 03:08:50;;;;;;;4.00;1.40;;;7.40;99.90;;;;;;5027939;28;20021;-73
2021/05/29 03:11:16;;;;;;;2.63;1.63;;;7.40;99.90;;;;;;5017438;28;20022;-75
2021/05/29 03:13:42;;;;;;;1.70;1.30;;;7.30;99.90;;;;;;5036669;28;20040;-74
2021/05/29 03:16:07;;;;;;;3.10;1.20;;;7.30;99.90;;;;;;5034930;28;20021;-74
2021/05/29 03:18:33;;;;;;;4.70;1.17;;;7.30;99.90;;;;;;5039890;28;20037;-75
2021/05/29 03:20:59;;;;;;;3.25;1.30;;;7.30;99.90;;;;;;5017493;28;20114;-75
2021/05/29 03:23:25;;;;;;;3.20;1.55;;;7.30;99.90;;;;;;5027643;28;20021;-75
2021/05/29 03:25:51;;;;;;;3.80;2.10;;;7.20;99.90;;;;;;5037679;28;20026;-74
2021/05/29 03:28:17;;;;;;;2.72;1.10;;;7.20;99.90;;;;;;5035345;28;20087;-74
2021/05/29 03:30:43;;;;;;;3.67;1.52;;;7.20;99.90;;;;;;5036087;28;20033;-74
2021/05/29 03:33:11;;;;;;;3.15;1.00;;;7.10;99.90;;;;;;5018101;28;20025;-75
2021/05/29 03:35:37;;;;;;;2.90;1.17;;;7.10;99.90;;;;;;5050148;28;20025;-75
2021/05/29 03:38:03;;;;;;;2.80;0.80;;;7.10;99.90;;;;;;5036117;28;20029;-73
2021/05/29 03:40:28;;;;;;;6.28;2.65;;;7.10;99.90;;;;;;5017780;28;20475;-74
2021/05/29 03:42:54;;;;;;;3.90;1.17;;;7.00;99.90;;;;;;5018607;28;20033;-75
2021/05/29 03:45:21;;;;;;;29.38;1.77;;;7.00;99.90;;;;;;5035367;28;20486;-74
2021/05/29 03:47:48;;;;;;;6.63;0.93;;;7.00;99.90;;;;;;5035603;28;20030;-74
2021/05/29 03:50:25;;;;;;;2.45;1.05;;;7.00;99.90;;;;;;5035818;22;20045;-73
2021/05/29 03:52:52;;;;;;;5.22;1.10;;;6.90;99.90;;;;;;5043174;28;20039;-74
2021/05/29 03:55:19;;;;;;;3.25;1.63;;;7.00;99.90;;;;;;5019901;28;20434;-74
2021/05/29 03:57:46;;;;;;;1.45;0.82;;;7.00;99.90;;;;;;5066379;22;20047;-74
2021/05/29 04:00:15;;;;;;;3.60;1.35;;;7.00;99.90;;;;;;5055820;28;20036;-74
2021/05/29 04:02:40;;;;;;;1.85;1.02;;;7.00;99.90;;;;;;5083291;22;20456;-75
2021/05/29 04:05:07;;;;;;;3.15;0.73;;;7.00;99.90;;;;;;5027243;28;20025;-74
2021/05/29 04:07:33;;;;;;;4.55;1.40;;;7.00;99.90;;;;;;5035693;28;20040;-74
2021/05/29 04:09:59;;;;;;;3.03;1.02;;;7.00;99.90;;;;;;5006032;28;20026;-74
2021/05/29 04:12:25;;;;;;;3.30;0.95;;;7.10;99.90;;;;;;5016023;28;20025;-74
2021/05/29 04:14:50;;;;;;;4.50;1.08;;;7.10;99.90;;;;;;5023845;28;20104;-74
2021/05/29 04:17:16;;;;;;;4.22;0.90;;;7.20;99.90;;;;;;5017813;28;20021;-73
2021/05/29 04:19:42;;;;;;;3.03;0.80;;;7.30;99.90;;;;;;5008024;28;20471;-74
2021/05/29 04:22:07;;;;;;;3.17;1.75;;;7.30;99.90;;;;;;5015630;28;20025;-74
2021/05/29 04:24:33;;;;;;;3.53;1.05;;;7.40;99.90;;;;;;5030970;28;20030;-74
2021/05/29 04:26:59;;;;;;;3.05;0.70;;;7.40;99.90;;;;;;5001295;28;20033;-73
2021/05/29 04:29:25;;;;;;;2.85;1.13;;;7.60;99.90;;;;;;5015489;28;20482;-75
2021/05/29 04:31:50;;;;;;;4.18;1.00;;;7.60;99.90;;;;;;4997275;28;20117;-74
2021/05/29 04:34:16;;;;;;;2.80;0.95;;;7.70;99.90;;;;;;5073354;22;20044;-74
2021/05/29 04:36:42;;;;;;;3.03;1.10;;;7.80;99.90;;;;;;5054546;28;20029;-73
2021/05/29 04:39:07;;;;;;;2.03;1.00;;;7.90;99.90;;;;;;5038140;28;20037;-76
2021/05/29 04:41:33;;;;;;;4.45;1.40;;;8.00;99.90;;;;;;5034135;28;20083;-74
2021/05/29 04:43:59;;;;;;;2.22;1.30;;;8.10;99.90;;;;;;5017062;28;20056;-77
2021/05/29 04:46:24;;;;;;;5.47;1.70;;;8.20;99.90;;;;;;5017036;28;20021;-75
2021/05/29 04:48:50;;;;;;;3.38;1.58;;;8.40;99.90;;;;;;5040047;28;20477;-74
2021/05/29 04:51:16;;;;;;;5.20;2.45;;;8.50;99.90;;;;;;5015992;28;20021;-74
2021/05/29 04:53:44;;;;;;;6.13;1.83;;;8.60;99.90;;;;;;5033953;28;20033;-73
2021/05/29 04:56:11;;;;;;;3.97;1.80;;;8.80;99.90;;;;;;5033797;28;20478;-73
2021/05/29 04:58:39;;;;;;;4.78;1.98;;;8.90;99.90;;;;;;5034400;28;20032;-74
2021/05/29 05:01:09;;;;;;;5.35;1.50;;;9.00;99.90;;;;;;5034522;28;20132;-74
2021/05/29 05:03:36;;;;;;;2.13;1.17;;;9.20;99.90;;;;;;5037322;28;20096;-73
2021/05/29 05:06:01;;;;;;;2.97;1.60;;;9.30;99.90;;;;;;5019566;28;20038;-75
2021/05/29 05:08:27;;;;;;;2.72;1.48;;;9.40;99.90;;;;;;5033856;28;20553;-73
2021/05/29 05:10:55;;;;;;;7.03;1.73;;;9.50;99.90;;;;;;5033008;28;20051;-75
2021/05/29 05:13:22;;;;;;;3.85;1.80;;;9.70;99.90;;;;;;5036337;28;20116;-75
2021/05/29 05:15:52;;;;;;;6.07;1.77;;;9.80;99.90;;;;;;5044015;22;20124;-73
2021/05/29 05:18:20;;;;;;;6.00;1.70;;;10.00;99.90;;;;;;5035948;28;20036;-74
2021/05/29 05:20:46;;;;;;;2.95;1.55;;;10.10;99.90;;;;;;5050305;28;20746;-73
2021/05/29 05:23:12;;;;;;;7.25;2.50;;;10.10;99.90;;;;;;5075289;22;20049;-74
2021/05/29 05:25:37;;;;;;;5.03;1.77;;;10.20;99.90;;;;;;5076554;22;20057;-74
2021/05/29 05:28:03;;;;;;;4.47;2.00;;;10.30;99.90;;;;;;5057569;28;20044;-75
2021/05/29 05:30:29;;;;;;;4.78;1.88;;;10.40;99.90;;;;;;5057215;28;20017;-74
2021/05/29 05:33:01;;;;;;;4.78;2.03;;;10.50;99.90;;;;;;5057502;28;20057;-74
2021/05/29 05:35:27;;;;;;;21.73;2.85;;;10.60;99.90;;;;;;5033483;28;20114;-74
2021/05/29 05:37:52;;;;;;;9.88;2.42;;;10.70;99.90;;;;;;5004943;28;20057;-75
2021/05/29 05:40:18;;;;;;;5.75;2.78;;;10.80;99.90;;;;;;5034492;28;20036;-75
2021/05/29 05:42:43;;;;;;;8.02;3.42;;;10.90;99.90;;;;;;5055140;22;20513;-75
2021/05/29 05:45:09;;;;;;;4.30;2.30;;;11.00;99.90;;;;;;5030354;28;20025;-75
2021/05/29 05:47:35;;;;;;;10.02;3.28;;;11.10;99.90;;;;;;5057205;28;20359;-74
2021/05/29 05:50:01;;;;;;;6.47;3.28;;;11.20;99.90;;;;;;5060829;28;20029;-74
2021/05/29 05:52:27;;;;;;;8.55;2.83;;;11.30;99.90;;;;;;5074385;28;20017;-75
2021/05/29 05:54:52;;;;;;;7.10;2.58;;;11.50;99.90;;;;;;5046511;28;20074;-75
2021/05/29 05:57:18;;;;;;;4.03;2.50;;;11.60;99.90;;;;;;5076654;28;20024;-75
2021/05/29 05:59:44;;;;;;;7.38;3.35;;;11.70;99.90;;;;;;5045575;28;20028;-76
2021/05/29 06:02:09;;;;;;;8.23;3.35;;;11.90;99.90;;;;;;5042040;28;20100;-75
2021/05/29 06:04:35;;;;;;;6.68;2.90;;;12.00;99.90;;;;;;5042215;28;20534;-75
2021/05/29 06:07:00;;;;;;;6.90;3.55;;;12.00;99.90;;;;;;5036401;28;20112;-75
2021/05/29 06:09:28;;;;;;;10.70;4.32;;;12.10;99.90;;;;;;5036496;28;20025;-75
2021/05/29 06:11:54;;;;;;;10.07;3.80;;;12.30;99.90;;;;;;5036119;28;20588;-74
2021/05/29 06:19:49;;;;;;;9.15;3.03;;;12.50;99.90;;;;;;5056797;28;20032;-75
2021/05/29 06:22:14;;;;;;;7.07;3.92;;;12.60;99.90;;;;;;5056599;28;20469;-74
2021/05/29 06:24:40;;;;;;;8.95;3.47;;;12.70;99.90;;;;;;5061279;28;20024;-75
2021/05/29 06:27:06;;;;;;;7.90;3.97;;;12.80;99.90;;;;;;5057940;28;20021;-75
2021/05/29 06:29:32;;;;;;;8.85;3.90;;;12.90;99.90;;;;;;5066595;28;20074;-75
2021/05/29 06:31:59;;;;;;;10.65;3.97;;;12.90;99.90;;;;;;5051074;28;20394;-75
2021/05/29 06:34:24;;;;;;;8.68;3.50;;;13.00;99.90;;;;;;5046564;28;20028;-74
2021/05/29 06:36:51;;;;;;;10.70;3.55;;;13.10;99.90;;;;;;5056272;28;20021;-72
2021/05/29 06:39:16;;;;;;;8.85;4.22;;;13.20;99.90;;;;;;5037854;28;20100;-71
2021/05/29 06:41:42;;;;;;;10.85;3.88;;;13.30;99.90;;;;;;5037961;28;20501;-73
2021/05/29 06:44:12;;;;;;;8.90;3.78;;;13.40;99.90;;;;;;5055570;28;20409;-73
2021/05/29 06:46:41;;;;;;;6.10;3.03;;;13.50;99.90;;;;;;5059390;28;20104;-73
2021/05/29 06:49:07;;;;;;;;;;;13.60;99.90;;;;;;5055831;28;20033;-73
2021/05/29 06:54:43;;;;;;;7.50;4.22;;;13.70;99.90;;;;;;5055172;28;20502;-73
2021/05/29 06:59:43;;;;;;;11.07;4.75;;;13.90;99.90;;;;;;5055824;28;20032;-73
2021/05/29 07:02:09;;;;;;;7.00;4.60;;;14.00;99.90;;;;;;5070952;28;20029;-73
2021/05/29 07:04:35;;;;;;;7.90;3.90;;;14.00;99.90;;;;;;5075354;28;20025;-73
2021/05/29 07:07:00;;;;;;;7.80;4.22;;;14.10;99.90;;;;;;5075692;28;20050;-73
2021/05/29 07:09:26;;;;;;;8.13;4.30;;;14.20;99.90;;;;;;5064073;28;20056;-75
2021/05/29 07:11:52;;;;;;;7.57;4.10;;;14.30;99.90;;;;;;5037449;28;20027;-74
2021/05/29 07:14:18;;;;;;;7.03;3.92;;;14.30;99.90;;;;;;5065277;28;20024;-73
2021/05/29 07:16:45;;;;;;;9.40;4.53;;;14.30;99.90;;;;;;5054162;23;20079;-72
2021/05/29 07:19:11;;;;;;;9.50;4.32;;;14.30;99.90;;;;;;5057043;28;20017;-73
2021/05/29 07:21:38;;;;;;;10.18;4.68;;;14.30;99.90;;;;;;5075169;28;20048;-73
2021/05/29 07:24:04;;;;;;;9.60;5.05;;;14.30;99.90;;;;;;5057394;28;20013;-74
2021/05/29 07:26:30;;;;;;;7.35;4.18;;;14.30;99.90;;;;;;5035695;28;20375;-74
2021/05/29 07:28:56;;;;;;;10.40;4.57;;;14.50;99.90;;;;;;5034932;28;20021;-72
2021/05/29 07:31:22;;;;;;;7.22;4.28;;;14.60;99.90;;;;;;5017185;28;20171;-74
2021/05/29 07:33:50;;;;;;;9.32;4.47;;;14.70;99.90;;;;;;5018772;28;20151;-74
2021/05/29 07:36:16;;;;;;;10.77;4.47;;;14.80;99.90;;;;;;5034808;28;20047;-72
2021/05/29 07:38:42;;;;;;;8.85;4.38;;;14.90;99.90;;;;;;5035046;28;20036;-72
2021/05/29 07:41:08;;;;;;;13.25;5.00;;;15.00;99.90;;;;;;5034270;28;20023;-74
2021/05/29 07:43:34;;;;;;;11.25;5.40;;;15.00;99.90;;;;;;5016999;28;20025;-74
2021/05/29 07:46:00;;;;;;;9.10;4.80;;;15.10;99.90;;;;;;5053127;28;20404;-73
2021/05/29 07:48:26;;;;;;;9.55;5.00;;;15.10;99.90;;;;;;5036618;28;20032;-72
2021/05/29 07:51:02;;;;;;;12.55;4.93;;;15.20;99.90;;;;;;5036782;28;20024;-74
2021/05/29 07:53:30;;;;;;;14.48;5.03;;;15.20;99.90;;;;;;5036688;28;20111;-72
2021/05/29 07:55:56;;;;;;;11.35;4.95;;;15.30;99.90;;;;;;5035661;28;20030;-75
2021/05/29 07:58:22;;;;;;;8.20;4.50;;;15.30;99.90;;;;;;5034456;28;20024;-72
2021/05/29 08:00:54;;;;;;;8.88;4.53;;;15.20;99.90;;;;;;5034538;28;20021;-73
2021/05/29 08:03:22;;;;;;;8.30;4.53;;;15.40;99.90;;;;;;5034465;28;20036;-76
2021/05/29 08:05:50;;;;;;;11.15;5.30;;;15.40;99.90;;;;;;5034219;28;20018;-73
2021/05/29 08:08:16;;;;;;;10.93;5.40;;;15.40;99.90;;;;;;5034702;28;20036;-72
2021/05/29 08:10:43;;;;;;;9.57;5.28;;;15.40;99.90;;;;;;5016776;28;20276;-76
2021/05/29 08:13:08;;;;;;;11.63;4.85;;;15.50;99.90;;;;;;5034237;28;20025;-76
2021/05/29 08:15:34;;;;;;;11.02;5.22;;;15.50;99.90;;;;;;5016234;28;20513;-76
2021/05/29 08:18:02;;;;;;;9.68;5.43;;;15.60;99.90;;;;;;5016749;28;20456;-75
2021/05/29 08:20:28;;;;;;;10.35;4.78;;;15.60;99.90;;;;;;5035451;28;20112;-75
2021/05/29 08:22:54;;;;;;;8.00;5.15;;;15.60;99.90;;;;;;5018416;28;20021;-73
2021/05/29 08:25:20;;;;;;;8.32;4.50;;;15.70;99.90;;;;;;5048761;28;20025;-76
2021/05/29 08:27:46;;;;;;;8.93;4.32;;;15.80;99.90;;;;;;5036071;28;20071;-76
2021/05/29 08:30:12;;;;;;;8.77;4.45;;;15.90;99.90;;;;;;5052892;28;20023;-75
2021/05/29 08:32:39;;;;;;;9.88;4.38;;;16.00;99.90;;;;;;5054217;28;20017;-76
2021/05/29 08:35:07;;;;;;;7.78;4.80;;;16.00;99.90;;;;;;5049868;28;20032;-74
2021/05/29 08:37:33;;;;;;;10.07;4.78;;;16.20;99.90;;;;;;5053666;28;20028;-73
2021/05/29 08:39:58;;;;;;;9.00;4.07;;;16.20;99.90;;;;;;5037428;28;20021;-73
2021/05/29 08:42:24;;;;;;;8.60;4.28;;;16.40;99.90;;;;;;5034840;28;20021;-77
2021/05/29 08:44:51;;;;;;;6.78;2.83;;;16.40;99.90;;;;;;5034337;28;20025;-77
2021/05/29 08:47:19;;;;;;;5.75;3.25;;;16.40;99.90;;;;;;5016402;28;20494;-74
2021/05/29 08:49:45;;;;;;;6.28;3.20;;;16.50;98.70;;;;;;5034280;28;20059;-73
2021/05/29 08:52:11;;;;;;;5.57;3.60;;;16.60;98.80;;;;;;5015648;28;20061;-73
2021/05/29 08:54:37;;;;;;;8.15;3.58;;;16.60;97.70;;;;;;5033951;28;20026;-75
2021/05/29 08:57:03;;;;;;;8.23;3.38;;;16.60;99.90;;;;;;5033917;28;20029;-75
2021/05/29 08:59:29;;;;;;;5.25;2.95;;;16.80;99.90;;;;;;5015637;28;20030;-75
2021/05/29 09:01:55;;;;;;;9.43;3.83;;;16.90;98.60;;;;;;5033592;28;20045;-73
2021/05/29 09:04:20;;;;;;;5.82;3.25;;;17.00;98.00;;;;;;5015752;28;20053;-74
2021/05/29 09:06:46;;;;;;;4.80;3.00;;;17.10;97.70;;;;;;5033697;28;20441;-76
2021/05/29 09:09:14;;;;;;;6.05;3.15;;;17.20;97.60;;;;;;5033939;28;20068;-74
2021/05/29 09:11:48;;;;;;;4.10;2.28;;;17.10;94.90;;;;;;5053853;28;20036;-75
2021/05/29 09:17:15;;;;;;;4.57;2.53;;;17.30;95.90;;;;;;5053275;28;20548;-75
2021/05/29 09:20:06;;;;;;;5.63;2.70;;;17.30;93.10;;;;;;5030214;28;20159;-76
2021/05/29 09:22:41;;;;;;;3.85;1.67;;;17.20;93.00;;;;;;5047136;28;20042;-76
2021/05/29 09:25:12;;;;;;;4.95;2.60;;;17.20;93.60;;;;;;5015426;28;20436;-75
2021/05/29 09:27:56;;;;;;;3.75;2.45;;;17.20;93.50;;;;;;5033195;28;20029;-75
2021/05/29 09:30:43;;;;;;;3.10;1.75;;;17.20;93.80;;;;;;5015792;28;20033;-76
2021/05/29 09:33:17;;;;;;;5.18;2.17;;;17.40;95.40;;;;;;5015581;28;20452;-76
2021/05/29 09:35:48;;;;;;;3.63;2.13;;;17.70;92.90;;;;;;5033145;28;20034;-73
2021/05/29 09:38:14;;;;;;;3.38;2.00;;;17.80;94.50;;;;;;5015888;28;20022;-73
2021/05/29 09:40:48;;;;;;;5.25;2.55;;;18.00;95.90;;;;;;5033375;28;20026;-76
2021/05/29 09:43:14;;;;;;;3.60;2.75;;;17.90;90.60;;;;;;5033525;28;20021;-76
2021/05/29 09:45:40;;;;;;;5.43;2.42;;;17.80;94.00;;;;;;5033407;28;20030;-75
2021/05/29 09:48:18;;;;;;;5.15;3.35;;;17.60;89.60;;;;;;5033111;28;20057;-74
2021/05/29 09:50:56;;;;;;;;;;;17.50;93.10;;;;;;5017764;28;20037;-74
2021/05/29 09:53:34;;;;;;;4.43;2.28;;;17.50;93.70;;;;;;5097197;22;19928;-72
2021/05/29 09:56:00;;;;;;;5.13;1.98;;;17.40;92.90;;;;;;5038480;28;20053;-76
2021/05/29 09:58:56;;;;;;;4.15;1.88;;;17.20;95.40;;;;;;5033538;28;20025;-75
2021/05/29 10:01:52;;;;;;;3.47;2.00;;;17.30;94.50;;;;;;5033143;28;20013;-71
2021/05/29 10:04:40;;;;;;;3.63;1.88;;;17.50;91.70;;;;;;5017741;28;20057;-74
2021/05/29 10:07:12;;;;;;;7.28;2.33;;;17.70;92.50;;;;;;5054327;28;20111;-72
2021/05/29 10:09:38;;;;;;;2.45;1.77;;;17.80;91.60;;;;;;5057016;28;20099;-72
2021/05/29 10:12:05;;;;;;;3.03;1.33;;;17.90;91.50;;;;;;5087148;22;20045;-73
2021/05/29 10:14:31;;;;;;;2.58;1.25;;;18.20;92.10;;;;;;5021454;28;20033;-73
2021/05/29 10:16:58;;;;;;;3.85;2.22;;;18.40;90.20;;;;;;5052253;22;20024;-72
2021/05/29 10:19:24;;;;;;;5.00;2.83;;;19.00;85.30;;;;;;5035728;28;20026;-72
2021/05/29 10:21:51;;;;;;;8.70;3.65;;;18.70;86.70;;;;;;5052819;22;20032;-75
2021/05/29 10:24:18;;;;;;;7.22;2.42;;;19.00;84.90;;;;;;5051816;22;20102;-71
2021/05/29 10:26:45;;;;;;;5.32;2.22;;;18.80;81.20;;;;;;5038211;28;20059;-72
2021/05/29 10:29:11;;;;;;;3.60;2.50;;;18.80;85.50;;;;;;5068913;22;20045;-71
2021/05/29 10:31:38;;;;;;;2.85;2.08;;;18.90;77.50;;;;;;5038077;28;20486;-73
2021/05/29 10:34:06;;;;;;;8.02;2.85;;;18.90;79.70;;;;;;5056378;28;20105;-73
2021/05/29 10:36:54;;;;;;;5.68;1.83;;;19.20;80.50;;;;;;5038575;28;20025;-72
2021/05/29 10:39:41;;;;;;;5.13;2.97;;;19.40;82.40;;;;;;5019004;28;20025;-74
2021/05/29 10:42:07;;;;;;;4.68;2.08;;;19.40;80.60;;;;;;5036308;28;20414;-72
2021/05/29 10:44:44;;;;;;;4.25;2.53;;;19.40;84.50;;;;;;5035567;28;20032;-74
2021/05/29 10:47:16;;;;;;;3.70;1.88;;;19.20;76.70;;;;;;5036004;28;20101;-74
2021/05/29 10:49:53;;;;;;;4.55;2.30;;;19.20;81.70;;;;;;5018114;28;20509;-72
2021/05/29 10:52:31;;;;;;;2.97;1.70;;;19.50;82.00;;;;;;5036644;28;20029;-74
2021/05/29 10:55:22;;;;;;;3.22;2.05;;;19.60;74.60;;;;;;5018441;28;20509;-72
2021/05/29 10:58:05;;;;;;;5.18;2.38;;;19.80;72.20;;;;;;5018223;28;20117;-74
2021/05/29 11:00:41;;;;;;;4.55;1.90;;;19.60;73.20;;;;;;5036103;28;20017;-74
2021/05/29 11:03:25;;;;;;;3.28;1.33;;;19.80;72.70;;;;;;5034795;28;20025;-74
2021/05/29 11:06:01;;;;;;;2.22;1.15;;;19.90;77.30;;;;;;5036065;28;20064;-74
2021/05/29 11:08:46;;;;;;;3.65;1.98;;;20.20;75.30;;;;;;5035835;28;20029;-74
2021/05/29 11:11:39;;;;;;;3.22;1.05;;;20.30;74.40;;;;;;5017615;28;20116;-75
2021/05/29 11:14:22;;;;;;;4.15;1.48;;;20.10;69.00;;;;;;5035912;28;20029;-75
2021/05/29 11:16:53;;;;;;;4.22;2.00;;;19.70;68.80;;;;;;5034871;28;20489;-76
2021/05/29 11:19:27;;;;;;;4.30;1.60;;;19.20;72.70;;;;;;5035987;28;20052;-75
2021/05/29 11:22:14;;;;;;;3.78;1.90;;;19.20;75.30;;;;;;5017240;28;20376;-76
2021/05/29 11:24:52;;;;;;;3.60;1.40;;;19.40;76.30;;;;;;5033292;22;20012;-76
2021/05/29 11:27:22;;;;;;;3.20;1.73;;;19.40;74.00;;;;;;5054933;28;20039;-72
2021/05/29 11:29:51;;;;;;;2.58;1.48;;;19.20;72.70;;;;;;5037399;28;20053;-73
2021/05/29 11:32:46;;;;;;;1.80;1.20;;;19.00;75.40;;;;;;5054853;28;20051;-73
2021/05/29 11:35:24;;;;;;;2.65;1.00;;;19.60;72.30;;;;;;5046932;28;20394;-73
2021/05/29 11:38:21;;;;;;;3.97;1.10;;;19.70;77.80;;;;;;5035649;28;20100;-75
2021/05/29 11:40:56;;;;;;;1.60;1.03;;;19.70;76.10;;;;;;5067873;22;20052;-76
2021/05/29 11:46:01;;;;;;;3.97;0.95;;;19.80;81.40;;;;;;5018750;28;20050;-74
2021/05/29 11:48:31;;;;;;;4.50;1.13;;;19.90;77.80;;;;;;4997132;28;20026;-74
2021/05/29 11:51:13;;;;;;;2.70;1.15;;;19.90;76.30;;;;;;5015068;28;20403;-76
2021/05/29 11:53:50;;;;;;;2.35;0.60;;;19.80;72.70;;;;;;4997547;28;20505;-75
2021/05/29 11:56:33;;;;;;;2.50;0.90;;;20.20;71.20;;;;;;5014680;28;20030;-73
2021/05/29 11:59:00;;;;;;;2.47;0.80;;;20.10;71.80;;;;;;5014658;28;20026;-76
2021/05/29 12:01:37;;;;;;;1.83;0.70;;;19.80;69.80;;;;;;4997430;28;20124;-73
2021/05/29 12:04:08;;;;;;;2.33;1.00;;;19.60;73.90;;;;;;5014917;28;20487;-76
2021/05/29 12:06:39;;;;;;;7.75;1.15;;;19.70;71.10;;;;;;5014699;28;20026;-73
2021/05/29 12:09:11;;;;;;;2.28;0.70;;;20.00;69.00;;;;;;4997111;28;20426;-73
2021/05/29 12:11:39;;;;;;;2.28;0.68;;;20.00;70.90;;;;;;5014910;28;20026;-75
2021/05/29 12:14:16;;;;;;;3.00;0.80;;;20.40;72.10;;;;;;5013886;28;20054;-74
2021/05/29 12:16:48;;;;;;;1.02;0.70;;;21.00;65.20;;;;;;5068264;22;20382;-75
2021/05/29 12:19:44;;;;;;;2.78;0.68;;;21.60;69.70;;;;;;5035896;28;20018;-73
2021/05/29 12:22:13;;;;;;;2.08;0.90;;;22.10;67.70;;;;;;5037222;28;20033;-73
2021/05/29 12:24:44;;;;;;;0.80;0.80;;;22.20;66.70;;;;;;5053911;28;20158;-73
2021/05/29 12:27:11;;;;;;;4.53;0.60;;;21.80;66.90;;;;;;5034712;28;20385;-75
2021/05/29 12:29:38;;;;;;;0.60;0.60;;;21.40;64.10;;;;;;5034368;28;20029;-73
2021/05/29 12:32:05;;;;;;;2.05;0.52;;;21.60;69.00;;;;;;5034013;28;20032;-73
2021/05/29 12:34:31;;;;;;;2.65;1.02;;;21.80;64.70;;;;;;5033523;28;20036;-73
2021/05/29 12:37:08;;;;;;;2.05;0.80;;;22.10;68.20;;;;;;5000947;28;20413;-75
2021/05/29 12:39:41;;;;;;;1.48;0.40;;;22.70;67.80;;;;;;5016147;28;20021;-73
2021/05/29 12:42:17;;;;;;;0.75;0.43;;;23.30;61.00;;;;;;5059125;22;20045;-74
2021/05/29 12:44:51;;;;;;;0.82;0.30;;;23.70;63.70;;;;;;5035792;28;20063;-74
2021/05/29 12:47:29;;;;;;;2.30;0.57;;;23.50;60.30;;;;;;5035834;28;20046;-73
2021/05/29 12:49:57;;;;;;;1.13;0.30;;;22.60;58.50;;;;;;5066859;22;20103;-72
2021/05/29 12:52:33;;;;;;;0.93;0.45;;;22.50;61.10;;;;;;5053938;28;20490;-72
2021/05/29 12:55:00;;;;;;;1.45;0.73;;;22.40;62.60;;;;;;5035358;28;20017;-76
2021/05/29 12:57:42;;;;;;;1.52;0.52;;;22.50;60.00;;;;;;5016342;28;20052;-75
2021/05/29 13:00:15;;;;;;;2.55;0.65;;;22.90;58.30;;;;;;5016202;28;20079;-72
2021/05/29 13:07:23;;;;;;;14.20;1.02;;;22.90;57.70;;;;;;5033641;28;20056;-75
2021/05/29 13:09:03;;;;;;;1.88;0.70;;;22.70;62.90;;;;;;5033741;28;20041;-75
2021/05/29 13:11:33;;;;;;;0.57;0.17;;;22.70;59.70;;;;;;5034176;28;20037;-73
2021/05/29 13:14:03;;;;;;;2.10;0.40;;;22.80;60.90;;;;;;5033723;28;20037;-73
2021/05/29 13:16:44;;;;;;;1.52;0.95;;;22.60;57.60;;;;;;5015808;28;20061;-75
2021/05/29 13:19:10;;;;;;;1.27;0.55;;;22.30;56.40;;;;;;5061323;23;20076;-73
2021/05/29 13:22:08;;;;;;;2.45;0.32;;;22.20;56.70;;;;;;5035438;28;20021;-76